Nearby METAR Reports

 

LBGO - Gorna Oryahovista, Bulgaria
Distance from station: NE 50km
Updated: 11/12/2018 20:00
Clear
Clear
 Wind from W
Wind: W 15 km/h
Temperature: 3°C
Wind Chill: -1°C
Dew Point: -3°C
Humidity: 65%
Barometer: 1015 hPa
Clouds: Clear
Visibility: 10 km
2018/12/11 18:00 LBGO 111800Z AUTO 27008KT 9999 NCD 03/M03 Q1015